sensor_id;sensor_type;location;lat;lon;timestamp;temperature;humidity
24802;DHT22;12898;50.520;12.152;2024-02-16T00:01:20;8.30;99.90
24802;DHT22;12898;50.520;12.152;2024-02-16T00:03:46;8.20;99.90
24802;DHT22;12898;50.520;12.152;2024-02-16T00:06:12;8.20;99.90
24802;DHT22;12898;50.520;12.152;2024-02-16T00:08:38;8.20;99.90
24802;DHT22;12898;50.520;12.152;2024-02-16T00:11:05;8.10;99.90
24802;DHT22;12898;50.520;12.152;2024-02-16T00:13:31;8.10;99.90
24802;DHT22;12898;50.520;12.152;2024-02-16T00:15:57;8.20;99.90
24802;DHT22;12898;50.520;12.152;2024-02-16T00:18:23;8.20;99.90
24802;DHT22;12898;50.520;12.152;2024-02-16T00:20:49;8.10;99.90
24802;DHT22;12898;50.520;12.152;2024-02-16T00:23:15;8.10;99.90
24802;DHT22;12898;50.520;12.152;2024-02-16T00:25:41;8.20;99.90
24802;DHT22;12898;50.520;12.152;2024-02-16T00:28:08;8.20;99.90
24802;DHT22;12898;50.520;12.152;2024-02-16T00:30:34;8.20;99.90
24802;DHT22;12898;50.520;12.152;2024-02-16T00:32:59;8.20;99.90
24802;DHT22;12898;50.520;12.152;2024-02-16T00:35:26;8.20;99.90
24802;DHT22;12898;50.520;12.152;2024-02-16T00:37:52;8.20;99.90
24802;DHT22;12898;50.520;12.152;2024-02-16T00:40:18;8.20;99.90
24802;DHT22;12898;50.520;12.152;2024-02-16T00:42:43;8.20;99.90
24802;DHT22;12898;50.520;12.152;2024-02-16T00:45:09;8.20;99.90
24802;DHT22;12898;50.520;12.152;2024-02-16T00:47:35;8.20;99.90
24802;DHT22;12898;50.520;12.152;2024-02-16T00:50:01;8.20;99.90
24802;DHT22;12898;50.520;12.152;2024-02-16T00:52:28;8.20;99.90
24802;DHT22;12898;50.520;12.152;2024-02-16T00:54:54;8.30;99.90
24802;DHT22;12898;50.520;12.152;2024-02-16T00:57:20;8.30;99.90
24802;DHT22;12898;50.520;12.152;2024-02-16T00:59:45;8.30;99.90
24802;DHT22;12898;50.520;12.152;2024-02-16T01:02:11;8.30;99.90
24802;DHT22;12898;50.520;12.152;2024-02-16T01:04:37;8.30;99.90
24802;DHT22;12898;50.520;12.152;2024-02-16T01:07:03;8.30;99.90
24802;DHT22;12898;50.520;12.152;2024-02-16T01:09:28;8.30;99.90
24802;DHT22;12898;50.520;12.152;2024-02-16T01:11:54;8.30;99.90
24802;DHT22;12898;50.520;12.152;2024-02-16T01:14:20;8.30;99.90
24802;DHT22;12898;50.520;12.152;2024-02-16T01:16:46;8.30;99.90
24802;DHT22;12898;50.520;12.152;2024-02-16T01:19:12;8.30;99.90
24802;DHT22;12898;50.520;12.152;2024-02-16T01:21:38;8.30;99.90
24802;DHT22;12898;50.520;12.152;2024-02-16T01:24:05;8.30;99.90
24802;DHT22;12898;50.520;12.152;2024-02-16T01:26:32;8.40;99.90
24802;DHT22;12898;50.520;12.152;2024-02-16T01:28:58;8.40;99.90
24802;DHT22;12898;50.520;12.152;2024-02-16T01:31:24;8.40;99.90
24802;DHT22;12898;50.520;12.152;2024-02-16T01:33:50;8.40;99.90
24802;DHT22;12898;50.520;12.152;2024-02-16T01:36:18;8.40;99.90
24802;DHT22;12898;50.520;12.152;2024-02-16T01:38:44;8.40;99.90
24802;DHT22;12898;50.520;12.152;2024-02-16T01:41:10;8.40;99.90
24802;DHT22;12898;50.520;12.152;2024-02-16T01:43:36;8.40;99.90
24802;DHT22;12898;50.520;12.152;2024-02-16T01:46:02;8.40;99.90
24802;DHT22;12898;50.520;12.152;2024-02-16T01:48:28;8.50;99.90
24802;DHT22;12898;50.520;12.152;2024-02-16T01:50:54;8.40;99.90
24802;DHT22;12898;50.520;12.152;2024-02-16T01:53:21;8.40;99.90
24802;DHT22;12898;50.520;12.152;2024-02-16T01:55:48;8.40;99.90
24802;DHT22;12898;50.520;12.152;2024-02-16T01:58:13;8.40;99.90
24802;DHT22;12898;50.520;12.152;2024-02-16T02:00:40;8.50;99.90
24802;DHT22;12898;50.520;12.152;2024-02-16T02:03:08;8.60;99.90
24802;DHT22;12898;50.520;12.152;2024-02-16T02:05:46;8.60;99.90
24802;DHT22;12898;50.520;12.152;2024-02-16T02:08:13;8.60;99.90
24802;DHT22;12898;50.520;12.152;2024-02-16T02:10:39;8.60;99.90
24802;DHT22;12898;50.520;12.152;2024-02-16T02:13:05;8.60;99.90
24802;DHT22;12898;50.520;12.152;2024-02-16T02:15:31;8.60;99.90
24802;DHT22;12898;50.520;12.152;2024-02-16T02:17:56;8.50;99.90
24802;DHT22;12898;50.520;12.152;2024-02-16T02:20:24;8.50;99.90
24802;DHT22;12898;50.520;12.152;2024-02-16T02:22:50;8.50;99.90
24802;DHT22;12898;50.520;12.152;2024-02-16T02:25:16;8.50;99.90
24802;DHT22;12898;50.520;12.152;2024-02-16T02:27:42;8.50;99.90
24802;DHT22;12898;50.520;12.152;2024-02-16T02:30:08;8.50;99.90
24802;DHT22;12898;50.520;12.152;2024-02-16T02:32:34;8.50;99.90
24802;DHT22;12898;50.520;12.152;2024-02-16T02:35:02;8.50;99.90
24802;DHT22;12898;50.520;12.152;2024-02-16T02:37:29;8.50;99.90
24802;DHT22;12898;50.520;12.152;2024-02-16T02:39:55;8.50;99.90
24802;DHT22;12898;50.520;12.152;2024-02-16T02:42:22;8.50;99.90
24802;DHT22;12898;50.520;12.152;2024-02-16T02:44:48;8.60;99.90
24802;DHT22;12898;50.520;12.152;2024-02-16T02:47:18;8.60;99.90
24802;DHT22;12898;50.520;12.152;2024-02-16T02:49:44;8.60;99.90
24802;DHT22;12898;50.520;12.152;2024-02-16T02:52:10;8.60;99.90
24802;DHT22;12898;50.520;12.152;2024-02-16T02:54:36;8.60;99.90
24802;DHT22;12898;50.520;12.152;2024-02-16T02:57:02;8.60;99.90
24802;DHT22;12898;50.520;12.152;2024-02-16T02:59:28;8.50;99.90
24802;DHT22;12898;50.520;12.152;2024-02-16T03:01:54;8.50;99.90
24802;DHT22;12898;50.520;12.152;2024-02-16T03:04:19;8.50;99.90
24802;DHT22;12898;50.520;12.152;2024-02-16T03:06:46;8.50;99.90
24802;DHT22;12898;50.520;12.152;2024-02-16T03:09:12;8.50;99.90
24802;DHT22;12898;50.520;12.152;2024-02-16T03:11:38;8.60;99.90
24802;DHT22;12898;50.520;12.152;2024-02-16T03:14:05;8.50;99.90
24802;DHT22;12898;50.520;12.152;2024-02-16T03:16:31;8.50;99.90
24802;DHT22;12898;50.520;12.152;2024-02-16T03:18:58;8.50;99.90
24802;DHT22;12898;50.520;12.152;2024-02-16T03:21:23;8.50;99.90
24802;DHT22;12898;50.520;12.152;2024-02-16T03:23:49;8.50;99.90
24802;DHT22;12898;50.520;12.152;2024-02-16T03:26:16;8.50;99.90
24802;DHT22;12898;50.520;12.152;2024-02-16T03:28:48;8.50;99.90
24802;DHT22;12898;50.520;12.152;2024-02-16T03:31:19;8.50;99.90
24802;DHT22;12898;50.520;12.152;2024-02-16T03:33:47;8.50;99.90
24802;DHT22;12898;50.520;12.152;2024-02-16T03:36:14;8.50;99.90
24802;DHT22;12898;50.520;12.152;2024-02-16T03:38:47;8.50;99.90
24802;DHT22;12898;50.520;12.152;2024-02-16T03:41:24;8.50;99.90
24802;DHT22;12898;50.520;12.152;2024-02-16T03:43:50;8.50;99.90
24802;DHT22;12898;50.520;12.152;2024-02-16T03:46:17;8.60;99.90
24802;DHT22;12898;50.520;12.152;2024-02-16T03:48:43;8.60;99.90
24802;DHT22;12898;50.520;12.152;2024-02-16T03:51:10;8.60;99.90
24802;DHT22;12898;50.520;12.152;2024-02-16T03:53:35;8.50;99.90
24802;DHT22;12898;50.520;12.152;2024-02-16T03:56:01;8.60;99.90
24802;DHT22;12898;50.520;12.152;2024-02-16T03:58:27;8.60;99.90
24802;DHT22;12898;50.520;12.152;2024-02-16T04:00:53;8.60;99.90
24802;DHT22;12898;50.520;12.152;2024-02-16T04:03:19;8.60;99.90
24802;DHT22;12898;50.520;12.152;2024-02-16T04:05:44;8.60;99.90
24802;DHT22;12898;50.520;12.152;2024-02-16T04:08:10;8.60;99.90
24802;DHT22;12898;50.520;12.152;2024-02-16T04:10:36;8.60;99.90
24802;DHT22;12898;50.520;12.152;2024-02-16T04:13:02;8.60;99.90
24802;DHT22;12898;50.520;12.152;2024-02-16T04:15:29;8.60;99.90
24802;DHT22;12898;50.520;12.152;2024-02-16T04:17:54;8.60;99.90
24802;DHT22;12898;50.520;12.152;2024-02-16T04:20:20;8.60;99.90
24802;DHT22;12898;50.520;12.152;2024-02-16T04:22:46;8.60;99.90
24802;DHT22;12898;50.520;12.152;2024-02-16T04:25:12;8.60;99.90
24802;DHT22;12898;50.520;12.152;2024-02-16T04:27:38;8.60;99.90
24802;DHT22;12898;50.520;12.152;2024-02-16T04:30:04;8.60;99.90
24802;DHT22;12898;50.520;12.152;2024-02-16T04:32:31;8.60;99.90
24802;DHT22;12898;50.520;12.152;2024-02-16T04:34:58;8.60;99.90
24802;DHT22;12898;50.520;12.152;2024-02-16T04:37:25;8.50;99.90
24802;DHT22;12898;50.520;12.152;2024-02-16T04:39:51;8.50;99.90
24802;DHT22;12898;50.520;12.152;2024-02-16T04:42:17;8.50;99.90
24802;DHT22;12898;50.520;12.152;2024-02-16T04:44:43;8.50;99.90
24802;DHT22;12898;50.520;12.152;2024-02-16T04:47:09;8.50;99.90
24802;DHT22;12898;50.520;12.152;2024-02-16T04:49:35;8.50;99.90
24802;DHT22;12898;50.520;12.152;2024-02-16T04:52:02;8.60;99.90
24802;DHT22;12898;50.520;12.152;2024-02-16T04:54:29;8.50;99.90
24802;DHT22;12898;50.520;12.152;2024-02-16T04:56:55;8.50;99.90
24802;DHT22;12898;50.520;12.152;2024-02-16T04:59:21;8.50;99.90
24802;DHT22;12898;50.520;12.152;2024-02-16T05:01:47;8.50;99.90
24802;DHT22;12898;50.520;12.152;2024-02-16T05:04:13;8.50;99.90
24802;DHT22;12898;50.520;12.152;2024-02-16T05:06:43;8.60;99.90
24802;DHT22;12898;50.520;12.152;2024-02-16T05:09:11;8.50;99.90
24802;DHT22;12898;50.520;12.152;2024-02-16T05:11:36;8.50;99.90
24802;DHT22;12898;50.520;12.152;2024-02-16T05:14:02;8.50;99.90
24802;DHT22;12898;50.520;12.152;2024-02-16T05:16:28;8.50;99.90
24802;DHT22;12898;50.520;12.152;2024-02-16T05:18:55;8.50;99.90
24802;DHT22;12898;50.520;12.152;2024-02-16T05:21:22;8.50;99.90
24802;DHT22;12898;50.520;12.152;2024-02-16T05:23:47;8.50;99.90
24802;DHT22;12898;50.520;12.152;2024-02-16T05:26:13;8.40;99.90
24802;DHT22;12898;50.520;12.152;2024-02-16T05:28:39;8.40;99.90
24802;DHT22;12898;50.520;12.152;2024-02-16T05:31:15;8.40;99.90
24802;DHT22;12898;50.520;12.152;2024-02-16T05:33:48;8.30;99.90
24802;DHT22;12898;50.520;12.152;2024-02-16T05:36:19;8.40;99.90
24802;DHT22;12898;50.520;12.152;2024-02-16T05:38:53;8.40;99.90
24802;DHT22;12898;50.520;12.152;2024-02-16T05:41:21;8.40;99.90
24802;DHT22;12898;50.520;12.152;2024-02-16T05:43:47;8.30;99.90
24802;DHT22;12898;50.520;12.152;2024-02-16T05:46:14;8.40;99.90
24802;DHT22;12898;50.520;12.152;2024-02-16T05:48:41;8.40;99.90
24802;DHT22;12898;50.520;12.152;2024-02-16T05:51:07;8.30;99.90
24802;DHT22;12898;50.520;12.152;2024-02-16T05:53:34;8.30;99.90
24802;DHT22;12898;50.520;12.152;2024-02-16T05:56:00;8.20;99.90
24802;DHT22;12898;50.520;12.152;2024-02-16T05:58:26;8.20;99.90
24802;DHT22;12898;50.520;12.152;2024-02-16T06:00:53;8.20;99.90
24802;DHT22;12898;50.520;12.152;2024-02-16T06:03:20;8.20;99.90
24802;DHT22;12898;50.520;12.152;2024-02-16T06:05:46;8.30;99.90
24802;DHT22;12898;50.520;12.152;2024-02-16T06:08:12;8.30;99.90
24802;DHT22;12898;50.520;12.152;2024-02-16T06:10:38;8.30;99.90
24802;DHT22;12898;50.520;12.152;2024-02-16T06:13:05;8.30;99.90
24802;DHT22;12898;50.520;12.152;2024-02-16T06:15:31;8.30;99.90
24802;DHT22;12898;50.520;12.152;2024-02-16T06:18:00;8.40;99.90
24802;DHT22;12898;50.520;12.152;2024-02-16T06:20:26;8.40;99.90
24802;DHT22;12898;50.520;12.152;2024-02-16T06:22:52;8.40;99.90
24802;DHT22;12898;50.520;12.152;2024-02-16T06:25:18;8.40;99.90
24802;DHT22;12898;50.520;12.152;2024-02-16T06:27:44;8.40;99.90
24802;DHT22;12898;50.520;12.152;2024-02-16T06:30:12;8.40;99.90
24802;DHT22;12898;50.520;12.152;2024-02-16T06:32:41;8.50;99.90
24802;DHT22;12898;50.520;12.152;2024-02-16T06:35:10;8.60;99.90
24802;DHT22;12898;50.520;12.152;2024-02-16T06:37:36;8.60;99.90
24802;DHT22;12898;50.520;12.152;2024-02-16T06:40:06;8.60;99.90
24802;DHT22;12898;50.520;12.152;2024-02-16T06:42:35;8.60;99.90
24802;DHT22;12898;50.520;12.152;2024-02-16T06:45:02;8.50;99.90
24802;DHT22;12898;50.520;12.152;2024-02-16T06:47:33;8.50;99.90
24802;DHT22;12898;50.520;12.152;2024-02-16T06:49:59;8.60;99.90
24802;DHT22;12898;50.520;12.152;2024-02-16T06:52:25;8.60;99.90
24802;DHT22;12898;50.520;12.152;2024-02-16T06:54:50;8.60;99.90
24802;DHT22;12898;50.520;12.152;2024-02-16T06:57:17;8.60;99.90
24802;DHT22;12898;50.520;12.152;2024-02-16T06:59:43;8.60;99.90
24802;DHT22;12898;50.520;12.152;2024-02-16T07:02:08;8.60;99.90
24802;DHT22;12898;50.520;12.152;2024-02-16T07:04:36;8.60;99.90
24802;DHT22;12898;50.520;12.152;2024-02-16T07:07:02;8.60;99.90
24802;DHT22;12898;50.520;12.152;2024-02-16T07:09:29;8.60;99.90
24802;DHT22;12898;50.520;12.152;2024-02-16T07:11:55;8.60;99.90
24802;DHT22;12898;50.520;12.152;2024-02-16T07:14:20;8.70;99.90
24802;DHT22;12898;50.520;12.152;2024-02-16T07:16:46;8.60;99.90
24802;DHT22;12898;50.520;12.152;2024-02-16T07:19:12;8.60;99.90
24802;DHT22;12898;50.520;12.152;2024-02-16T07:21:38;8.70;99.90
24802;DHT22;12898;50.520;12.152;2024-02-16T07:24:04;8.70;99.90
24802;DHT22;12898;50.520;12.152;2024-02-16T07:26:30;8.70;99.90
24802;DHT22;12898;50.520;12.152;2024-02-16T07:28:55;8.70;99.90
24802;DHT22;12898;50.520;12.152;2024-02-16T07:31:21;8.70;99.90
24802;DHT22;12898;50.520;12.152;2024-02-16T07:33:47;8.80;99.90
24802;DHT22;12898;50.520;12.152;2024-02-16T07:36:13;8.80;99.90
24802;DHT22;12898;50.520;12.152;2024-02-16T07:38:39;8.90;99.90
24802;DHT22;12898;50.520;12.152;2024-02-16T07:41:05;8.90;99.90
24802;DHT22;12898;50.520;12.152;2024-02-16T07:43:32;8.90;99.90
24802;DHT22;12898;50.520;12.152;2024-02-16T07:45:58;8.90;99.90
24802;DHT22;12898;50.520;12.152;2024-02-16T07:48:24;9.00;99.90
24802;DHT22;12898;50.520;12.152;2024-02-16T07:50:49;9.00;99.90
24802;DHT22;12898;50.520;12.152;2024-02-16T07:53:15;9.00;99.90
24802;DHT22;12898;50.520;12.152;2024-02-16T07:55:41;9.00;99.90
24802;DHT22;12898;50.520;12.152;2024-02-16T07:58:07;9.10;99.90
24802;DHT22;12898;50.520;12.152;2024-02-16T08:00:34;9.10;99.90
24802;DHT22;12898;50.520;12.152;2024-02-16T08:03:00;9.20;99.90
24802;DHT22;12898;50.520;12.152;2024-02-16T08:05:26;9.20;99.90
24802;DHT22;12898;50.520;12.152;2024-02-16T08:07:52;9.20;99.90
24802;DHT22;12898;50.520;12.152;2024-02-16T08:10:19;9.10;99.90
24802;DHT22;12898;50.520;12.152;2024-02-16T08:12:48;9.20;99.90
24802;DHT22;12898;50.520;12.152;2024-02-16T08:15:14;9.30;99.90
24802;DHT22;12898;50.520;12.152;2024-02-16T08:17:41;9.30;99.90
24802;DHT22;12898;50.520;12.152;2024-02-16T08:20:07;9.30;99.90
24802;DHT22;12898;50.520;12.152;2024-02-16T08:22:33;9.30;99.90
24802;DHT22;12898;50.520;12.152;2024-02-16T08:24:59;9.30;99.90
24802;DHT22;12898;50.520;12.152;2024-02-16T08:27:25;9.30;99.90
24802;DHT22;12898;50.520;12.152;2024-02-16T08:29:51;9.30;99.90
24802;DHT22;12898;50.520;12.152;2024-02-16T08:32:19;9.20;99.90
24802;DHT22;12898;50.520;12.152;2024-02-16T08:34:46;9.20;99.90
24802;DHT22;12898;50.520;12.152;2024-02-16T08:37:13;9.20;99.90
24802;DHT22;12898;50.520;12.152;2024-02-16T08:39:39;9.30;99.90
24802;DHT22;12898;50.520;12.152;2024-02-16T08:42:06;9.30;99.90
24802;DHT22;12898;50.520;12.152;2024-02-16T08:44:34;9.30;99.90
24802;DHT22;12898;50.520;12.152;2024-02-16T08:47:00;9.40;99.90
24802;DHT22;12898;50.520;12.152;2024-02-16T08:49:26;9.50;99.90
24802;DHT22;12898;50.520;12.152;2024-02-16T08:51:52;9.50;99.90
24802;DHT22;12898;50.520;12.152;2024-02-16T08:54:18;9.60;99.90
24802;DHT22;12898;50.520;12.152;2024-02-16T08:56:45;9.60;99.90
24802;DHT22;12898;50.520;12.152;2024-02-16T08:59:11;9.70;99.90
24802;DHT22;12898;50.520;12.152;2024-02-16T09:01:38;9.70;99.90
24802;DHT22;12898;50.520;12.152;2024-02-16T09:04:07;9.80;99.90
24802;DHT22;12898;50.520;12.152;2024-02-16T09:06:32;9.90;99.90
24802;DHT22;12898;50.520;12.152;2024-02-16T09:09:00;9.90;99.90
24802;DHT22;12898;50.520;12.152;2024-02-16T09:11:26;10.00;99.90
24802;DHT22;12898;50.520;12.152;2024-02-16T09:13:51;10.10;99.90
24802;DHT22;12898;50.520;12.152;2024-02-16T09:16:17;10.20;99.90
24802;DHT22;12898;50.520;12.152;2024-02-16T09:18:43;10.30;99.90
24802;DHT22;12898;50.520;12.152;2024-02-16T09:21:09;10.40;99.90
24802;DHT22;12898;50.520;12.152;2024-02-16T09:23:36;10.60;99.90
24802;DHT22;12898;50.520;12.152;2024-02-16T09:26:02;10.70;99.90
24802;DHT22;12898;50.520;12.152;2024-02-16T09:28:29;10.70;99.90
24802;DHT22;12898;50.520;12.152;2024-02-16T09:30:55;10.80;99.90
24802;DHT22;12898;50.520;12.152;2024-02-16T09:33:22;10.80;99.90
24802;DHT22;12898;50.520;12.152;2024-02-16T09:35:48;10.90;99.90
24802;DHT22;12898;50.520;12.152;2024-02-16T09:38:14;11.00;99.90
24802;DHT22;12898;50.520;12.152;2024-02-16T09:40:40;11.10;99.90
24802;DHT22;12898;50.520;12.152;2024-02-16T09:43:06;11.20;99.90
24802;DHT22;12898;50.520;12.152;2024-02-16T09:45:33;11.10;99.90
24802;DHT22;12898;50.520;12.152;2024-02-16T09:47:59;11.20;99.90
24802;DHT22;12898;50.520;12.152;2024-02-16T09:50:25;11.30;99.90
24802;DHT22;12898;50.520;12.152;2024-02-16T09:52:52;11.40;99.90
24802;DHT22;12898;50.520;12.152;2024-02-16T09:55:19;11.40;99.90
24802;DHT22;12898;50.520;12.152;2024-02-16T09:57:45;11.50;99.90
24802;DHT22;12898;50.520;12.152;2024-02-16T10:00:12;11.60;99.90
24802;DHT22;12898;50.520;12.152;2024-02-16T10:02:47;11.70;99.90
24802;DHT22;12898;50.520;12.152;2024-02-16T10:05:19;11.80;99.90
24802;DHT22;12898;50.520;12.152;2024-02-16T10:07:46;11.90;99.90
24802;DHT22;12898;50.520;12.152;2024-02-16T10:10:25;11.90;99.90
24802;DHT22;12898;50.520;12.152;2024-02-16T10:13:05;12.00;99.90
24802;DHT22;12898;50.520;12.152;2024-02-16T10:15:34;12.00;99.90
24802;DHT22;12898;50.520;12.152;2024-02-16T10:18:01;12.10;99.90
24802;DHT22;12898;50.520;12.152;2024-02-16T10:20:28;12.10;99.90
24802;DHT22;12898;50.520;12.152;2024-02-16T10:23:11;12.10;99.90
24802;DHT22;12898;50.520;12.152;2024-02-16T10:25:40;12.20;99.90
24802;DHT22;12898;50.520;12.152;2024-02-16T10:28:10;12.20;99.90
24802;DHT22;12898;50.520;12.152;2024-02-16T10:30:40;12.20;99.90
24802;DHT22;12898;50.520;12.152;2024-02-16T10:33:11;12.20;99.90
24802;DHT22;12898;50.520;12.152;2024-02-16T10:35:41;12.30;99.90
24802;DHT22;12898;50.520;12.152;2024-02-16T10:38:07;12.40;99.90
24802;DHT22;12898;50.520;12.152;2024-02-16T10:40:39;12.40;99.90
24802;DHT22;12898;50.520;12.152;2024-02-16T10:43:07;12.40;99.90
24802;DHT22;12898;50.520;12.152;2024-02-16T10:45:38;12.50;99.90
24802;DHT22;12898;50.520;12.152;2024-02-16T10:48:05;12.80;99.90
24802;DHT22;12898;50.520;12.152;2024-02-16T10:50:32;13.20;99.90
24802;DHT22;12898;50.520;12.152;2024-02-16T10:55:49;14.00;99.90
24802;DHT22;12898;50.520;12.152;2024-02-16T10:58:17;14.20;99.90
24802;DHT22;12898;50.520;12.152;2024-02-16T11:00:54;14.30;99.90
24802;DHT22;12898;50.520;12.152;2024-02-16T11:03:25;14.30;99.90
24802;DHT22;12898;50.520;12.152;2024-02-16T11:05:51;14.10;99.90
24802;DHT22;12898;50.520;12.152;2024-02-16T11:08:18;13.80;99.90
24802;DHT22;12898;50.520;12.152;2024-02-16T11:11:01;13.70;99.90
24802;DHT22;12898;50.520;12.152;2024-02-16T11:13:34;13.50;99.90
24802;DHT22;12898;50.520;12.152;2024-02-16T11:16:08;13.20;99.90
24802;DHT22;12898;50.520;12.152;2024-02-16T11:18:39;13.10;99.90
24802;DHT22;12898;50.520;12.152;2024-02-16T11:21:06;13.10;99.90
24802;DHT22;12898;50.520;12.152;2024-02-16T11:23:37;13.00;99.90
24802;DHT22;12898;50.520;12.152;2024-02-16T11:26:04;13.00;99.90
24802;DHT22;12898;50.520;12.152;2024-02-16T11:28:35;13.00;99.90
24802;DHT22;12898;50.520;12.152;2024-02-16T11:31:01;13.00;99.90
24802;DHT22;12898;50.520;12.152;2024-02-16T11:33:28;13.00;99.90
24802;DHT22;12898;50.520;12.152;2024-02-16T11:35:55;12.90;99.90
24802;DHT22;12898;50.520;12.152;2024-02-16T11:38:25;12.80;99.90
24802;DHT22;12898;50.520;12.152;2024-02-16T11:41:05;12.80;99.90
24802;DHT22;12898;50.520;12.152;2024-02-16T11:43:33;12.80;99.90
24802;DHT22;12898;50.520;12.152;2024-02-16T11:45:59;12.70;99.90
24802;DHT22;12898;50.520;12.152;2024-02-16T11:48:26;12.60;99.90
24802;DHT22;12898;50.520;12.152;2024-02-16T11:51:02;12.60;99.90
24802;DHT22;12898;50.520;12.152;2024-02-16T11:53:29;12.50;99.90
24802;DHT22;12898;50.520;12.152;2024-02-16T11:55:56;12.50;99.90
24802;DHT22;12898;50.520;12.152;2024-02-16T11:58:22;12.40;99.90
24802;DHT22;12898;50.520;12.152;2024-02-16T12:00:49;12.50;99.90
24802;DHT22;12898;50.520;12.152;2024-02-16T12:03:24;12.40;99.90
24802;DHT22;12898;50.520;12.152;2024-02-16T12:05:57;12.40;99.90
24802;DHT22;12898;50.520;12.152;2024-02-16T12:08:31;12.40;99.90
24802;DHT22;12898;50.520;12.152;2024-02-16T12:10:58;12.40;99.90
24802;DHT22;12898;50.520;12.152;2024-02-16T12:13:24;12.40;99.90
24802;DHT22;12898;50.520;12.152;2024-02-16T12:15:51;12.40;99.90
24802;DHT22;12898;50.520;12.152;2024-02-16T12:18:24;12.40;99.90
24802;DHT22;12898;50.520;12.152;2024-02-16T12:21:00;12.40;99.90
24802;DHT22;12898;50.520;12.152;2024-02-16T12:23:28;12.40;99.90
24802;DHT22;12898;50.520;12.152;2024-02-16T12:25:56;12.40;99.90
24802;DHT22;12898;50.520;12.152;2024-02-16T12:28:25;12.40;99.90
24802;DHT22;12898;50.520;12.152;2024-02-16T12:30:52;12.50;99.90
24802;DHT22;12898;50.520;12.152;2024-02-16T12:33:19;12.40;99.90
24802;DHT22;12898;50.520;12.152;2024-02-16T12:35:44;12.40;99.90
24802;DHT22;12898;50.520;12.152;2024-02-16T12:38:11;12.40;99.90
24802;DHT22;12898;50.520;12.152;2024-02-16T12:40:37;12.40;99.90
24802;DHT22;12898;50.520;12.152;2024-02-16T12:43:03;12.40;99.90
24802;DHT22;12898;50.520;12.152;2024-02-16T12:45:29;12.40;99.90
24802;DHT22;12898;50.520;12.152;2024-02-16T12:47:57;12.40;99.90
24802;DHT22;12898;50.520;12.152;2024-02-16T12:50:23;12.40;99.90
24802;DHT22;12898;50.520;12.152;2024-02-16T12:52:48;12.40;99.90
24802;DHT22;12898;50.520;12.152;2024-02-16T12:55:14;12.40;99.90
24802;DHT22;12898;50.520;12.152;2024-02-16T12:57:41;12.30;99.90
24802;DHT22;12898;50.520;12.152;2024-02-16T13:00:07;12.30;99.90
24802;DHT22;12898;50.520;12.152;2024-02-16T13:02:34;12.20;99.90
24802;DHT22;12898;50.520;12.152;2024-02-16T13:04:59;12.20;99.90
24802;DHT22;12898;50.520;12.152;2024-02-16T13:07:25;12.20;99.90
24802;DHT22;12898;50.520;12.152;2024-02-16T13:09:51;12.20;99.90
24802;DHT22;12898;50.520;12.152;2024-02-16T13:12:18;12.10;99.90
24802;DHT22;12898;50.520;12.152;2024-02-16T13:14:45;12.10;99.90
24802;DHT22;12898;50.520;12.152;2024-02-16T13:17:11;12.10;99.90
24802;DHT22;12898;50.520;12.152;2024-02-16T13:19:38;12.10;99.90
24802;DHT22;12898;50.520;12.152;2024-02-16T13:22:04;12.10;99.90
24802;DHT22;12898;50.520;12.152;2024-02-16T13:24:29;12.10;99.90
24802;DHT22;12898;50.520;12.152;2024-02-16T13:26:55;12.10;99.90
24802;DHT22;12898;50.520;12.152;2024-02-16T13:29:21;12.20;99.90
24802;DHT22;12898;50.520;12.152;2024-02-16T13:31:47;12.10;99.90
24802;DHT22;12898;50.520;12.152;2024-02-16T13:34:13;12.10;99.90
24802;DHT22;12898;50.520;12.152;2024-02-16T13:36:40;12.10;99.90
24802;DHT22;12898;50.520;12.152;2024-02-16T13:39:07;12.10;99.90
24802;DHT22;12898;50.520;12.152;2024-02-16T13:41:33;12.10;99.90
24802;DHT22;12898;50.520;12.152;2024-02-16T13:43:59;12.10;99.90
24802;DHT22;12898;50.520;12.152;2024-02-16T13:46:25;12.10;99.90
24802;DHT22;12898;50.520;12.152;2024-02-16T13:48:51;12.10;99.90
24802;DHT22;12898;50.520;12.152;2024-02-16T13:51:17;12.00;99.90
24802;DHT22;12898;50.520;12.152;2024-02-16T13:53:42;12.00;99.90
24802;DHT22;12898;50.520;12.152;2024-02-16T13:56:08;11.90;99.90
24802;DHT22;12898;50.520;12.152;2024-02-16T13:58:34;11.90;99.90
24802;DHT22;12898;50.520;12.152;2024-02-16T14:01:00;11.80;99.90
24802;DHT22;12898;50.520;12.152;2024-02-16T14:03:28;11.80;99.90
24802;DHT22;12898;50.520;12.152;2024-02-16T14:05:54;11.80;99.90
24802;DHT22;12898;50.520;12.152;2024-02-16T14:08:20;11.80;99.90
24802;DHT22;12898;50.520;12.152;2024-02-16T14:10:46;11.80;99.90
24802;DHT22;12898;50.520;12.152;2024-02-16T14:13:12;11.80;99.90
24802;DHT22;12898;50.520;12.152;2024-02-16T14:15:37;11.80;99.90
24802;DHT22;12898;50.520;12.152;2024-02-16T14:18:03;11.80;99.90
24802;DHT22;12898;50.520;12.152;2024-02-16T14:20:29;11.80;99.90
24802;DHT22;12898;50.520;12.152;2024-02-16T14:22:55;11.90;99.90
24802;DHT22;12898;50.520;12.152;2024-02-16T14:25:22;12.00;99.90
24802;DHT22;12898;50.520;12.152;2024-02-16T14:27:49;12.00;99.90
24802;DHT22;12898;50.520;12.152;2024-02-16T14:30:15;12.10;99.90
24802;DHT22;12898;50.520;12.152;2024-02-16T14:32:41;12.20;99.90
24802;DHT22;12898;50.520;12.152;2024-02-16T14:35:07;12.20;99.90
24802;DHT22;12898;50.520;12.152;2024-02-16T14:37:33;12.30;99.90
24802;DHT22;12898;50.520;12.152;2024-02-16T14:39:59;12.40;99.90
24802;DHT22;12898;50.520;12.152;2024-02-16T14:42:26;12.40;99.90
24802;DHT22;12898;50.520;12.152;2024-02-16T14:44:54;12.50;99.90
24802;DHT22;12898;50.520;12.152;2024-02-16T14:47:19;12.60;99.90
24802;DHT22;12898;50.520;12.152;2024-02-16T14:49:47;12.60;99.90
24802;DHT22;12898;50.520;12.152;2024-02-16T14:52:13;12.60;99.90
24802;DHT22;12898;50.520;12.152;2024-02-16T14:54:38;12.70;99.90
24802;DHT22;12898;50.520;12.152;2024-02-16T14:57:05;12.80;99.90
24802;DHT22;12898;50.520;12.152;2024-02-16T14:59:31;12.80;99.90
24802;DHT22;12898;50.520;12.152;2024-02-16T15:01:56;12.80;99.90
24802;DHT22;12898;50.520;12.152;2024-02-16T15:04:24;12.80;99.90
24802;DHT22;12898;50.520;12.152;2024-02-16T15:06:51;12.70;99.90
24802;DHT22;12898;50.520;12.152;2024-02-16T15:09:16;12.70;99.90
24802;DHT22;12898;50.520;12.152;2024-02-16T15:11:42;12.70;99.90
24802;DHT22;12898;50.520;12.152;2024-02-16T15:14:08;12.60;99.90
24802;DHT22;12898;50.520;12.152;2024-02-16T15:16:33;12.60;99.90
24802;DHT22;12898;50.520;12.152;2024-02-16T15:18:59;12.60;99.90
24802;DHT22;12898;50.520;12.152;2024-02-16T15:21:26;12.60;99.90
24802;DHT22;12898;50.520;12.152;2024-02-16T15:23:52;12.60;99.90
24802;DHT22;12898;50.520;12.152;2024-02-16T15:26:18;12.60;99.90